createdAt,value
2018-08-18T00:04:09.284Z,22.20
2018-08-18T00:09:13.483Z,22.20
2018-08-18T00:14:18.015Z,22.10
2018-08-18T00:19:23.788Z,22.10
2018-08-18T00:24:28.779Z,22.00
2018-08-18T00:29:41.208Z,22.00
2018-08-18T00:34:57.957Z,22.00
2018-08-18T00:40:12.980Z,22.00
2018-08-18T00:45:20.173Z,21.90
2018-08-18T00:50:37.827Z,21.90
2018-08-18T00:55:43.999Z,21.90
2018-08-18T01:00:52.855Z,21.90
2018-08-18T01:06:04.218Z,21.80
2018-08-18T01:11:10.186Z,21.80
2018-08-18T01:16:15.748Z,21.80
2018-08-18T01:21:20.011Z,21.70
2018-08-18T01:26:26.956Z,21.70
2018-08-18T01:31:31.733Z,21.70
2018-08-18T01:36:39.020Z,21.60
2018-08-18T01:41:45.711Z,21.60
2018-08-18T01:46:54.723Z,21.60
2018-08-18T01:52:01.596Z,21.50
2018-08-18T01:57:08.879Z,21.50
2018-08-18T02:02:20.642Z,21.50
2018-08-18T02:07:27.562Z,21.40
2018-08-18T02:12:32.729Z,21.40
2018-08-18T02:17:42.967Z,21.30
2018-08-18T02:22:49.455Z,21.30
2018-08-18T02:27:58.041Z,21.20
2018-08-18T02:33:03.504Z,21.20
2018-08-18T02:38:07.202Z,21.20
2018-08-18T02:43:29.714Z,21.20
2018-08-18T02:48:35.238Z,21.10
2018-08-18T02:53:40.302Z,21.10
2018-08-18T02:58:48.542Z,21.00
2018-08-18T03:03:54.510Z,21.00
2018-08-18T03:09:00.640Z,21.00
2018-08-18T03:14:06.896Z,20.90
2018-08-18T03:19:16.105Z,20.90
2018-08-18T03:24:22.946Z,20.80
2018-08-18T03:29:31.050Z,20.80
2018-08-18T03:34:35.925Z,20.80
2018-08-18T03:39:40.719Z,20.70
2018-08-18T03:44:56.259Z,20.70
2018-08-18T03:50:00.375Z,20.60
2018-08-18T03:55:05.718Z,20.60
2018-08-18T04:00:10.998Z,20.50
2018-08-18T04:05:16.937Z,20.50
2018-08-18T04:10:24.014Z,20.40
2018-08-18T04:15:29.812Z,20.40
2018-08-18T04:20:36.107Z,20.40
2018-08-18T04:25:40.364Z,20.30
2018-08-18T04:30:43.900Z,20.30
2018-08-18T04:35:52.367Z,20.30
2018-08-18T04:40:56.486Z,20.20
2018-08-18T04:46:00.139Z,20.20
2018-08-18T04:51:03.833Z,20.20
2018-08-18T04:56:07.567Z,20.20
2018-08-18T05:01:12.207Z,20.20
2018-08-18T05:06:16.924Z,20.30
2018-08-18T05:11:22.037Z,20.30
2018-08-18T05:16:31.334Z,20.30
2018-08-18T05:21:35.138Z,20.40
2018-08-18T05:26:40.654Z,20.40
2018-08-18T05:31:44.488Z,20.60
2018-08-18T05:36:47.862Z,20.70
2018-08-18T05:41:53.631Z,20.80
2018-08-18T05:46:56.930Z,21.00
2018-08-18T05:52:00.595Z,21.10
2018-08-18T05:57:04.854Z,21.30
2018-08-18T06:02:09.926Z,21.50
2018-08-18T06:07:13.995Z,21.80
2018-08-18T06:12:21.594Z,22.10
2018-08-18T06:17:30.457Z,22.40
2018-08-18T06:22:34.963Z,22.70
2018-08-18T06:27:38.609Z,22.90
2018-08-18T06:32:42.344Z,23.20
2018-08-18T06:37:50.915Z,23.50
2018-08-18T06:42:55.079Z,23.70
2018-08-18T06:48:33.048Z,24.00
2018-08-18T06:53:45.331Z,24.40
2018-08-18T06:58:50.053Z,24.80
2018-08-18T07:03:55.096Z,25.10
2018-08-18T07:08:59.350Z,25.40
2018-08-18T07:14:05.392Z,25.60
2018-08-18T07:19:12.794Z,26.00
2018-08-18T07:24:17.755Z,26.20
2018-08-18T07:29:25.326Z,26.40
2018-08-18T07:34:31.650Z,26.80
2018-08-18T07:39:47.887Z,27.10
2018-08-18T07:44:54.411Z,27.30
2018-08-18T07:50:09.772Z,27.50
2018-08-18T07:55:17.468Z,27.80
2018-08-18T08:00:25.765Z,28.00
2018-08-18T08:05:46.829Z,28.30
2018-08-18T08:11:27.588Z,28.50
2018-08-18T08:16:37.394Z,28.80
2018-08-18T08:21:48.328Z,29.10
2018-08-18T08:26:54.007Z,29.40
2018-08-18T08:31:59.760Z,29.50
2018-08-18T08:37:05.775Z,29.50
2018-08-18T08:42:13.344Z,29.80
2018-08-18T08:47:18.484Z,30.00
2018-08-18T08:52:34.189Z,30.30
2018-08-18T08:57:40.571Z,30.60
2018-08-18T09:02:43.753Z,30.70
2018-08-18T09:07:49.521Z,30.80
2018-08-18T09:12:55.730Z,30.90
2018-08-18T09:18:01.275Z,31.10
2018-08-18T09:23:08.527Z,31.10
2018-08-18T09:28:15.858Z,31.10
2018-08-18T09:33:25.327Z,31.10
2018-08-18T09:38:35.714Z,31.00
2018-08-18T09:43:40.975Z,30.80
2018-08-18T09:48:46.359Z,30.70
2018-08-18T09:53:50.509Z,30.80
2018-08-18T09:58:55.037Z,31.00
2018-08-18T10:03:59.680Z,31.20
2018-08-18T10:09:07.809Z,31.30
2018-08-18T10:14:12.577Z,31.50
2018-08-18T10:19:17.483Z,31.70
2018-08-18T10:24:21.873Z,31.80
2018-08-18T10:29:26.805Z,32.00
2018-08-18T10:34:31.937Z,32.20
2018-08-18T10:39:38.482Z,32.30
2018-08-18T10:44:49.376Z,32.50
2018-08-18T10:50:04.122Z,32.70
2018-08-18T10:55:15.973Z,32.90
2018-08-18T11:00:25.848Z,33.10
2018-08-18T11:05:30.478Z,33.20
2018-08-18T11:10:40.687Z,33.40
2018-08-18T11:15:46.831Z,33.50
2018-08-18T11:20:51.500Z,33.60
2018-08-18T11:25:57.226Z,33.80
2018-08-18T11:31:01.170Z,33.90
2018-08-18T11:36:07.950Z,34.00
2018-08-18T11:41:12.931Z,34.10
2018-08-18T11:46:18.231Z,34.20
2018-08-18T11:51:27.502Z,34.30
2018-08-18T11:56:33.757Z,34.40
2018-08-18T12:01:40.542Z,34.60
2018-08-18T12:06:50.266Z,34.70
2018-08-18T12:11:55.637Z,34.80
2018-08-18T12:17:00.396Z,34.80
2018-08-18T12:22:04.467Z,34.90
2018-08-18T12:27:13.726Z,34.90
2018-08-18T12:32:25.479Z,35.00
2018-08-18T12:37:30.818Z,35.10
2018-08-18T12:42:34.635Z,35.20
2018-08-18T12:47:48.331Z,35.30
2018-08-18T12:52:52.306Z,35.30
2018-08-18T12:57:56.974Z,35.40
2018-08-18T13:03:01.860Z,35.50
2018-08-18T13:08:06.352Z,35.60
2018-08-18T13:13:12.393Z,35.60
2018-08-18T13:18:17.302Z,35.70
2018-08-18T13:23:24.816Z,35.70
2018-08-18T13:28:29.747Z,35.80
2018-08-18T13:33:37.666Z,35.80
2018-08-18T13:38:42.814Z,35.90
2018-08-18T13:43:48.218Z,35.90
2018-08-18T13:48:57.847Z,35.90
2018-08-18T13:54:04.194Z,35.90
2018-08-18T13:59:09.009Z,36.00
2018-08-18T14:04:19.971Z,36.00
2018-08-18T14:09:24.010Z,35.90
2018-08-18T14:14:27.966Z,35.70
2018-08-18T14:19:31.086Z,35.50
2018-08-18T14:24:36.224Z,35.10
2018-08-18T14:29:42.887Z,35.00
2018-08-18T14:35:19.226Z,34.60
2018-08-18T14:40:22.364Z,34.30
2018-08-18T14:45:26.322Z,34.00
2018-08-18T14:50:30.564Z,33.70
2018-08-18T14:55:33.715Z,33.50
2018-08-18T15:00:36.870Z,33.20
2018-08-18T15:05:40.021Z,33.00
2018-08-18T15:10:45.384Z,32.70
2018-08-18T15:15:48.597Z,32.60
2018-08-18T15:20:51.650Z,32.40
2018-08-18T15:25:54.789Z,32.10
2018-08-18T15:30:58.177Z,32.00
2018-08-18T15:36:01.304Z,31.80
2018-08-18T15:41:04.481Z,31.70
2018-08-18T15:46:07.648Z,31.50
2018-08-18T15:51:10.789Z,31.30
2018-08-18T15:56:13.938Z,31.10
2018-08-18T16:01:17.318Z,31.00
2018-08-18T16:06:20.459Z,30.80
2018-08-18T16:11:23.757Z,30.60
2018-08-18T16:16:26.906Z,30.50
2018-08-18T16:21:31.560Z,30.30
2018-08-18T16:26:34.705Z,30.20
2018-08-18T16:31:37.833Z,30.10
2018-08-18T16:36:46.021Z,30.00
2018-08-18T16:41:49.142Z,29.90
2018-08-18T16:46:52.280Z,29.80
2018-08-18T16:51:58.994Z,29.70
2018-08-18T16:57:02.137Z,29.60
2018-08-18T17:02:06.200Z,29.50
2018-08-18T17:07:14.717Z,29.30
2018-08-18T17:12:22.114Z,29.20
2018-08-18T17:17:25.681Z,29.10
2018-08-18T17:22:28.813Z,28.90
2018-08-18T17:27:32.020Z,28.70
2018-08-18T17:37:40.129Z,28.60
2018-08-18T17:42:43.268Z,28.20
2018-08-18T17:47:50.682Z,28.10
2018-08-18T17:52:53.865Z,27.90
2018-08-18T17:57:57.085Z,27.70
2018-08-18T18:03:01.372Z,27.60
2018-08-18T18:08:05.860Z,27.40
2018-08-18T18:13:16.382Z,27.30
2018-08-18T18:18:20.779Z,27.20
2018-08-18T18:23:24.148Z,27.10
2018-08-18T18:28:27.278Z,26.90
2018-08-18T18:33:30.518Z,26.80
2018-08-18T18:38:48.083Z,26.70
2018-08-18T18:44:00.424Z,26.60
2018-08-18T18:49:14.113Z,26.40
2018-08-18T18:54:17.255Z,26.40
2018-08-18T18:59:20.405Z,26.20
2018-08-18T19:04:23.529Z,26.10
2018-08-18T19:09:26.836Z,26.00
2018-08-18T19:14:29.984Z,25.90
2018-08-18T19:19:33.113Z,25.80
2018-08-18T19:24:36.242Z,25.80
2018-08-18T19:29:39.365Z,25.70
2018-08-18T19:34:42.500Z,25.60
2018-08-18T19:39:45.648Z,25.50
2018-08-18T19:44:50.254Z,25.40
2018-08-18T19:49:53.378Z,25.40
2018-08-18T19:54:56.511Z,25.30
2018-08-18T20:00:10.868Z,25.20
2018-08-18T20:05:14.006Z,25.10
2018-08-18T20:10:17.305Z,25.00
2018-08-18T20:15:20.436Z,24.90
2018-08-18T20:20:24.433Z,24.80
2018-08-18T20:25:27.553Z,24.80
2018-08-18T20:30:30.673Z,24.70
2018-08-18T20:35:33.800Z,24.60
2018-08-18T20:40:36.916Z,24.50
2018-08-18T20:45:45.464Z,24.40
2018-08-18T20:50:48.764Z,24.30
2018-08-18T20:55:55.372Z,24.30
2018-08-18T21:00:58.492Z,24.20
2018-08-18T21:06:01.618Z,24.10
2018-08-18T21:11:04.832Z,24.00
2018-08-18T21:16:08.153Z,24.00
2018-08-18T21:21:35.397Z,23.90
2018-08-18T21:26:38.518Z,23.80
2018-08-18T21:31:41.662Z,23.70
2018-08-18T21:36:44.820Z,23.60
2018-08-18T21:41:48.588Z,23.50
2018-08-18T21:46:51.712Z,23.50
2018-08-18T21:51:56.733Z,23.40
2018-08-18T21:56:59.855Z,23.40
2018-08-18T22:02:03.017Z,23.30
2018-08-18T22:07:06.526Z,23.20
2018-08-18T22:12:09.660Z,23.20
2018-08-18T22:17:12.816Z,23.10
2018-08-18T22:22:21.240Z,23.00
2018-08-18T22:27:24.382Z,23.00
2018-08-18T22:32:27.511Z,22.90
2018-08-18T22:37:30.644Z,22.90
2018-08-18T22:42:33.764Z,22.80
2018-08-18T22:47:36.916Z,22.80
2018-08-18T22:52:40.033Z,22.70
2018-08-18T22:57:47.578Z,22.70
2018-08-18T23:02:50.977Z,22.60
2018-08-18T23:07:55.509Z,22.60
2018-08-18T23:12:58.820Z,22.50
2018-08-18T23:18:01.969Z,22.40
2018-08-18T23:23:05.110Z,22.40
2018-08-18T23:28:08.266Z,22.30
2018-08-18T23:33:11.429Z,22.30
2018-08-18T23:38:14.550Z,22.20
2018-08-18T23:43:17.685Z,22.20
2018-08-18T23:48:20.956Z,22.10
2018-08-18T23:53:24.085Z,22.10
2018-08-18T23:58:27.413Z,22.00
